Time;durP1;ratioP1;P1;durP2;ratioP2;P2;SDS_P1;SDS_P2;PMS_P1;PMS_P2;Temp;Humidity;BMP_temperature;BMP_pressure;BME280_temperature;BME280_humidity;BME280_pressure;Samples;Min_cycle;Max_cycle;Signal;HPM_P1;HPM_P2
2023/09/20 00:01:14;;;;;;;14.90;3.30;;;;;;;16.87;96.22;100746.56;6212469;23;20512;-66
2023/09/20 00:03:40;;;;;;;16.58;3.75;;;;;;;16.85;95.74;100735.00;6214033;23;20009;-65
2023/09/20 00:06:07;;;;;;;15.63;3.60;;;;;;;16.82;95.96;100741.59;6213488;23;20058;-66
2023/09/20 00:08:33;;;;;;;11.93;3.45;;;;;;;16.81;95.90;100739.03;6213457;23;20489;-65
2023/09/20 00:10:58;;;;;;;13.27;3.75;;;;;;;16.76;96.05;100737.66;6214190;23;20359;-71
2023/09/20 00:13:24;;;;;;;12.38;3.63;;;;;;;16.74;96.56;100739.66;6212047;23;20039;-72
2023/09/20 00:15:55;;;;;;;15.70;3.95;;;;;;;16.72;97.10;100736.25;6186486;23;20028;-72
2023/09/20 00:18:20;;;;;;;8.82;3.03;;;;;;;16.69;96.81;100735.69;6212814;23;20004;-71
2023/09/20 00:20:46;;;;;;;13.20;3.70;;;;;;;16.66;96.74;100734.19;6212514;23;20005;-71
2023/09/20 00:23:11;;;;;;;11.93;3.20;;;;;;;16.65;97.17;100732.47;6212317;23;20003;-71
2023/09/20 00:25:37;;;;;;;16.52;4.07;;;;;;;16.60;97.26;100732.06;6213657;23;20004;-71
2023/09/20 00:28:03;;;;;;;14.45;3.72;;;;;;;16.58;97.66;100725.94;6213567;23;20013;-71
2023/09/20 00:30:28;;;;;;;16.15;3.55;;;;;;;16.56;97.60;100720.66;6213731;23;20016;-72
2023/09/20 00:32:54;;;;;;;10.48;3.22;;;;;;;16.56;97.91;100725.22;6213145;23;20018;-70
2023/09/20 00:35:19;;;;;;;14.23;3.65;;;;;;;16.51;98.19;100725.69;6213185;23;20004;-70
2023/09/20 00:37:45;;;;;;;12.73;3.50;;;;;;;16.51;98.17;100722.13;6213272;23;20009;-71
2023/09/20 00:40:21;;;;;;;10.48;3.63;;;;;;;16.50;98.42;100723.13;6214040;23;20004;-72
2023/09/20 00:42:49;;;;;;;12.50;3.28;;;;;;;16.48;98.86;100722.44;6187074;23;20007;-71
2023/09/20 00:45:15;;;;;;;10.95;3.25;;;;;;;16.47;99.04;100718.91;6213326;23;20019;-70
2023/09/20 00:47:51;;;;;;;9.23;3.33;;;;;;;16.48;98.73;100722.44;6213421;23;20008;-71
2023/09/20 00:50:16;;;;;;;15.85;3.60;;;;;;;16.46;99.05;100711.75;6213195;23;20430;-72
2023/09/20 00:52:43;;;;;;;12.40;3.45;;;;;;;16.48;99.04;100711.59;6213062;23;20012;-71
2023/09/20 00:55:15;;;;;;;13.50;3.28;;;;;;;16.47;99.22;100710.75;6211595;23;20004;-71
2023/09/20 00:57:40;;;;;;;15.63;4.00;;;;;;;16.47;99.17;100716.19;6186116;23;20009;-70
2023/09/20 01:00:20;;;;;;;13.60;3.17;;;;;;;16.49;99.47;100719.59;6211980;23;20391;-72
2023/09/20 01:02:47;;;;;;;13.63;3.83;;;;;;;16.52;99.86;100719.28;6214005;23;20027;-71
2023/09/20 01:05:13;;;;;;;12.15;3.42;;;;;;;16.51;99.47;100724.84;6188032;23;20195;-72
2023/09/20 01:07:41;;;;;;;17.05;3.92;;;;;;;16.49;98.99;100722.28;6187795;23;20004;-71
2023/09/20 01:10:07;;;;;;;9.85;3.13;;;;;;;16.50;99.92;100723.13;6214449;23;20070;-72
2023/09/20 01:12:32;;;;;;;11.45;3.15;;;;;;;16.51;99.37;100716.72;6212086;23;20008;-71
2023/09/20 01:14:58;;;;;;;16.92;3.28;;;;;;;16.48;99.49;100717.03;6210449;23;20430;-71
2023/09/20 01:17:23;;;;;;;9.75;3.08;;;;;;;16.50;99.51;100715.00;6185180;23;20008;-71
2023/09/20 01:19:48;;;;;;;13.13;3.67;;;;;;;16.51;100.00;100705.88;6185982;23;20082;-72
2023/09/20 01:22:15;;;;;;;9.25;2.88;;;;;;;16.49;100.00;100713.31;6185304;23;20012;-65
2023/09/20 01:24:41;;;;;;;16.05;4.15;;;;;;;16.50;100.00;100712.28;6185298;23;20004;-66
2023/09/20 01:27:08;;;;;;;8.73;3.22;;;;;;;16.49;100.00;100713.31;6186069;23;20549;-65
2023/09/20 01:29:34;;;;;;;12.95;3.60;;;;;;;16.50;100.00;100701.44;6212793;23;20013;-65
2023/09/20 01:32:01;;;;;;;8.80;2.90;;;;;;;16.47;100.00;100704.47;6213053;23;20009;-67
2023/09/20 01:34:27;;;;;;;11.10;3.17;;;;;;;16.45;99.94;100701.06;6212143;23;20074;-66
2023/09/20 01:36:52;;;;;;;14.13;3.85;;;;;;;16.43;100.00;100693.94;6212240;23;20326;-66
2023/09/20 01:39:18;;;;;;;12.02;3.72;;;;;;;16.43;100.00;100688.50;6210841;23;20072;-66
2023/09/20 01:41:46;;;;;;;13.45;3.60;;;;;;;16.44;100.00;100697.47;6184794;23;20058;-65
2023/09/20 01:44:11;;;;;;;17.58;4.20;;;;;;;16.43;100.00;100693.09;6212389;23;20099;-67
2023/09/20 01:46:37;;;;;;;13.93;3.53;;;;;;;16.44;100.00;100692.06;6212106;23;20071;-66
2023/09/20 01:49:05;;;;;;;12.98;3.38;;;;;;;16.45;100.00;100685.63;6212353;23;20004;-66
2023/09/20 01:51:31;;;;;;;11.35;3.63;;;;;;;16.45;100.00;100682.06;6184317;23;20335;-66
2023/09/20 01:53:56;;;;;;;9.38;3.10;;;;;;;16.46;100.00;100681.91;6211368;23;20011;-67
2023/09/20 01:56:25;;;;;;;15.27;3.83;;;;;;;16.50;100.00;100685.16;6210550;23;20005;-66
2023/09/20 01:58:50;;;;;;;12.10;3.10;;;;;;;16.52;100.00;100688.59;6212001;23;20012;-66
2023/09/20 02:01:17;;;;;;;9.35;2.92;;;;;;;16.53;100.00;100683.00;6212242;23;20569;-66
2023/09/20 02:03:42;;;;;;;15.95;4.07;;;;;;;16.55;100.00;100675.56;6211794;23;19997;-66
2023/09/20 02:06:07;;;;;;;14.68;3.55;;;;;;;16.58;100.00;100668.97;6212138;23;20375;-65
2023/09/20 02:08:34;;;;;;;13.48;4.07;;;;;;;16.60;100.00;100672.38;6212031;23;20000;-66
2023/09/20 02:10:59;;;;;;;16.73;4.32;;;;;;;16.62;100.00;100669.50;6212160;23;20063;-66
2023/09/20 02:13:24;;;;;;;21.60;4.28;;;;;;;16.66;100.00;100668.19;6212404;23;20031;-66
2023/09/20 02:15:51;;;;;;;13.02;3.60;;;;;;;16.67;100.00;100668.03;6211797;23;20018;-66
2023/09/20 02:18:17;;;;;;;8.95;2.97;;;;;;;16.69;100.00;100660.59;6185332;23;20434;-66
2023/09/20 02:20:45;;;;;;;13.00;3.50;;;;;;;16.69;100.00;100660.59;6212347;23;20015;-66
2023/09/20 02:23:15;;;;;;;13.27;3.40;;;;;;;16.71;100.00;100664.00;6185316;23;20283;-66
2023/09/20 02:25:41;;;;;;;12.73;3.47;;;;;;;16.72;100.00;100660.28;6211766;23;20060;-65
2023/09/20 02:28:10;;;;;;;11.25;3.10;;;;;;;16.73;100.00;100647.53;6211830;23;20338;-66
2023/09/20 02:30:36;;;;;;;12.60;3.47;;;;;;;16.73;100.00;100651.09;6185627;23;20096;-66
2023/09/20 02:33:06;;;;;;;13.68;3.08;;;;;;;16.73;100.00;100648.38;6213039;23;20387;-66
2023/09/20 02:35:33;;;;;;;12.48;3.65;;;;;;;16.75;100.00;100651.81;6185456;23;20067;-66
2023/09/20 02:37:59;;;;;;;13.57;3.53;;;;;;;16.75;100.00;100654.53;6212405;23;20004;-65
2023/09/20 02:40:27;;;;;;;11.30;3.45;;;;;;;16.76;100.00;100647.22;6212149;23;20019;-66
2023/09/20 02:43:04;;;;;;;15.63;3.58;;;;;;;16.75;100.00;100638.25;6184651;23;20035;-67
2023/09/20 02:45:30;;;;;;;11.45;3.75;;;;;;;16.75;100.00;100646.38;6183894;23;20387;-65
2023/09/20 02:47:57;;;;;;;12.05;3.20;;;;;;;16.75;100.00;100640.97;6212197;23;20024;-66
2023/09/20 02:50:24;;;;;;;14.98;3.53;;;;;;;16.73;100.00;100640.25;6211729;23;20011;-65
2023/09/20 02:52:56;;;;;;;15.68;3.97;;;;;;;16.72;100.00;100630.41;6185308;23;20004;-65
2023/09/20 02:55:22;;;;;;;15.18;3.45;;;;;;;16.71;100.00;100642.28;6184765;23;20062;-65
2023/09/20 02:57:51;;;;;;;14.73;3.78;;;;;;;16.69;100.00;100638.00;6211739;23;20008;-66
2023/09/20 03:00:21;;;;;;;13.75;3.28;;;;;;;16.68;100.00;100637.16;6211338;23;20076;-65
2023/09/20 03:02:47;;;;;;;;;;;;;;;16.71;100.00;100631.41;6211970;23;20039;-67
2023/09/20 03:05:17;;;;;;;15.65;3.72;;;;;;;16.67;100.00;100631.91;6210782;23;19904;-66
2023/09/20 03:07:47;;;;;;;12.55;3.70;;;;;;;16.63;100.00;100623.22;6210679;23;20418;-65
2023/09/20 03:10:13;;;;;;;12.32;3.85;;;;;;;16.62;100.00;100626.94;6185131;23;20074;-65
2023/09/20 03:12:44;;;;;;;11.25;3.72;;;;;;;16.60;100.00;100610.84;6185068;23;20008;-66
2023/09/20 03:15:11;;;;;;;14.77;3.70;;;;;;;16.59;100.00;100617.25;6185064;23;20028;-67
2023/09/20 03:17:38;;;;;;;10.27;3.22;;;;;;;16.57;100.00;100613.00;6210472;23;20418;-65
2023/09/20 03:20:11;;;;;;;23.20;4.25;;;;;;;16.55;100.00;100612.31;6211107;23;20312;-66
2023/09/20 03:22:38;;;;;;;11.23;3.42;;;;;;;16.54;100.00;100602.47;6182862;23;20123;-66
2023/09/20 03:25:04;;;;;;;13.75;3.38;;;;;;;16.52;100.00;100604.50;6210798;23;20023;-66
2023/09/20 03:27:30;;;;;;;10.23;3.00;;;;;;;16.48;100.00;100597.66;6209050;23;20422;-66
2023/09/20 03:29:56;;;;;;;14.40;3.78;;;;;;;16.46;100.00;100592.41;6210196;23;20535;-65
2023/09/20 03:32:22;;;;;;;13.13;3.63;;;;;;;16.44;100.00;100597.13;6211083;23;20005;-65
2023/09/20 03:34:48;;;;;;;9.38;3.03;;;;;;;16.42;100.00;100599.16;6210924;23;20404;-65
2023/09/20 03:37:13;;;;;;;10.65;2.95;;;;;;;16.39;100.00;100616.56;6210639;23;20354;-65
2023/09/20 03:39:40;;;;;;;12.13;3.70;;;;;;;16.38;100.00;100614.03;6209057;23;20008;-65
2023/09/20 03:42:09;;;;;;;13.50;3.50;;;;;;;16.33;100.00;100606.34;6209977;23;20032;-73
2023/09/20 03:44:35;;;;;;;16.67;3.80;;;;;;;16.30;100.00;100601.25;6210565;23;20015;-73
2023/09/20 03:47:00;;;;;;;14.25;3.53;;;;;;;16.29;100.00;100607.69;6209514;23;20084;-72
2023/09/20 03:49:26;;;;;;;10.95;3.65;;;;;;;16.28;100.00;100610.53;6184268;23;20000;-72
2023/09/20 03:51:52;;;;;;;10.63;3.50;;;;;;;16.25;100.00;100604.44;6184352;23;20062;-71
2023/09/20 03:54:17;;;;;;;13.32;3.42;;;;;;;16.24;100.00;100615.44;6211481;23;20027;-72
2023/09/20 03:56:44;;;;;;;16.15;3.75;;;;;;;16.23;100.00;100601.00;6211078;23;20012;-72
2023/09/20 03:59:12;;;;;;;15.82;3.63;;;;;;;16.21;100.00;100604.91;6211657;23;20334;-71
2023/09/20 04:01:37;;;;;;;15.30;3.33;;;;;;;16.18;100.00;100605.19;6183971;23;20008;-71
2023/09/20 04:04:03;;;;;;;15.10;3.88;;;;;;;16.15;100.00;100603.66;6211174;23;20071;-72
2023/09/20 04:06:29;;;;;;;14.30;3.58;;;;;;;16.12;100.00;100595.84;6183736;23;20055;-72
2023/09/20 04:08:55;;;;;;;14.85;3.38;;;;;;;16.11;100.00;100604.13;6209033;23;20079;-73
2023/09/20 04:11:20;;;;;;;15.13;3.35;;;;;;;16.07;100.00;100604.41;6210643;23;20031;-73
2023/09/20 04:13:46;;;;;;;12.00;3.40;;;;;;;16.05;100.00;100606.44;6211209;23;20005;-72
2023/09/20 04:16:11;;;;;;;13.45;3.92;;;;;;;16.05;100.00;100598.31;6209959;23;20338;-72
2023/09/20 04:18:37;;;;;;;17.02;4.10;;;;;;;16.02;100.00;100595.91;6210260;23;20012;-71
2023/09/20 04:21:02;;;;;;;12.25;3.50;;;;;;;16.00;100.00;100592.50;6183583;23;20368;-72
2023/09/20 04:23:28;;;;;;;10.85;3.60;;;;;;;15.98;100.00;100590.97;6182830;23;20015;-71
2023/09/20 04:25:55;;;;;;;11.05;3.13;;;;;;;15.97;100.00;100591.94;6209492;23;20016;-72
2023/09/20 04:28:20;;;;;;;11.50;3.28;;;;;;;15.92;100.00;100587.00;6182216;23;20450;-72
2023/09/20 04:30:47;;;;;;;13.70;3.63;;;;;;;15.94;100.00;100579.56;6208153;23;20016;-72
2023/09/20 04:33:12;;;;;;;16.13;4.25;;;;;;;15.92;100.00;100570.75;6209359;23;20036;-71
2023/09/20 04:35:38;;;;;;;17.27;4.35;;;;;;;15.90;100.00;100578.16;6208758;23;20039;-72
2023/09/20 04:38:03;;;;;;;12.40;3.83;;;;;;;15.85;100.00;100572.34;6208705;23;20000;-70
2023/09/20 04:40:29;;;;;;;12.35;3.53;;;;;;;15.85;100.00;100559.66;6209527;23;20334;-72
2023/09/20 04:42:55;;;;;;;17.00;4.15;;;;;;;15.82;100.00;100557.25;6210610;23;20013;-70
2023/09/20 04:45:20;;;;;;;18.92;4.65;;;;;;;15.83;100.00;100552.69;6209796;23;20000;-72
2023/09/20 04:47:45;;;;;;;13.48;3.97;;;;;;;15.81;100.00;100565.53;6211331;23;20043;-69
2023/09/20 04:50:12;;;;;;;15.23;3.63;;;;;;;15.79;100.00;100564.84;6211718;23;20011;-73
2023/09/20 04:52:38;;;;;;;14.88;3.58;;;;;;;15.78;100.00;100568.53;6184647;23;20017;-72
2023/09/20 04:55:03;;;;;;;12.15;3.30;;;;;;;15.76;100.00;100562.41;6212227;23;20012;-72
2023/09/20 04:57:31;;;;;;;16.48;4.00;;;;;;;15.76;100.00;100565.13;6185414;23;20005;-72
2023/09/20 04:59:56;;;;;;;13.40;4.15;;;;;;;15.73;100.00;100559.00;6207621;23;20220;-71
2023/09/20 05:02:22;;;;;;;14.82;3.40;;;;;;;15.72;100.00;100564.56;6211508;23;20004;-72
2023/09/20 05:04:48;;;;;;;19.75;3.88;;;;;;;15.72;100.00;100562.72;6212177;23;20055;-70
2023/09/20 05:07:13;;;;;;;14.70;3.95;;;;;;;15.74;100.00;100562.56;6184926;23;20008;-71
2023/09/20 05:09:38;;;;;;;13.30;3.80;;;;;;;15.73;100.00;100555.44;6210743;23;20004;-72
2023/09/20 05:12:04;;;;;;;11.32;3.65;;;;;;;15.72;100.00;100559.16;6212286;23;20286;-72
2023/09/20 05:14:30;;;;;;;15.40;3.90;;;;;;;15.71;100.00;100552.00;6212887;23;20001;-71
2023/09/20 05:16:55;;;;;;;9.40;3.40;;;;;;;15.66;100.00;100557.91;6212904;23;20009;-72
2023/09/20 05:19:24;;;;;;;13.70;3.80;;;;;;;15.68;100.00;100555.91;6212466;23;20001;-71
2023/09/20 05:21:50;;;;;;;12.00;3.15;;;;;;;15.68;100.00;100561.31;6211717;23;20447;-71
2023/09/20 05:24:15;;;;;;;12.07;3.70;;;;;;;15.65;100.00;100569.75;6211312;23;20000;-72
2023/09/20 05:26:40;;;;;;;18.27;4.18;;;;;;;15.65;100.00;100567.06;6184280;23;20035;-72
2023/09/20 05:29:05;;;;;;;13.73;3.70;;;;;;;15.64;100.00;100557.22;6171384;23;20020;-72
2023/09/20 05:31:32;;;;;;;16.52;4.40;;;;;;;15.64;100.00;100557.22;6151915;23;20001;-72
2023/09/20 05:33:58;;;;;;;19.40;4.55;;;;;;;15.64;100.00;100551.78;6152934;23;20005;-72
2023/09/20 05:36:23;;;;;;;17.20;4.68;;;;;;;15.66;100.00;100549.78;6152123;23;20574;-74
2023/09/20 05:38:49;;;;;;;13.43;3.92;;;;;;;15.66;100.00;100552.47;6152302;23;20433;-73
2023/09/20 05:41:15;;;;;;;15.18;4.28;;;;;;;15.65;100.00;100547.22;6149083;23;20013;-74
2023/09/20 05:43:42;;;;;;;12.38;4.18;;;;;;;15.63;100.00;100547.38;6151919;23;20068;-74
2023/09/20 05:46:08;;;;;;;20.55;4.43;;;;;;;15.64;100.00;100551.78;6153023;23;20443;-74
2023/09/20 05:48:34;;;;;;;17.33;4.30;;;;;;;15.65;100.00;100548.09;6151596;23;20006;-74
2023/09/20 05:51:00;;;;;;;14.55;3.92;;;;;;;15.67;100.00;100543.34;6150799;23;20155;-74
2023/09/20 05:53:25;;;;;;;11.80;3.50;;;;;;;15.66;100.00;100538.94;6150769;23;20372;-74
2023/09/20 05:55:51;;;;;;;11.50;4.00;;;;;;;15.67;100.00;100542.50;6152001;23;20005;-75
2023/09/20 05:58:17;;;;;;;17.60;4.10;;;;;;;15.65;100.00;100542.66;6149618;23;20011;-74
2023/09/20 06:00:42;;;;;;;12.05;3.38;;;;;;;15.67;100.00;100551.47;6151214;23;20067;-74
2023/09/20 06:03:10;;;;;;;11.55;4.03;;;;;;;15.68;100.00;100558.63;6152530;23;20005;-68
2023/09/20 06:05:37;;;;;;;12.77;3.88;;;;;;;15.67;100.00;100551.47;6152063;23;20009;-69
2023/09/20 06:08:05;;;;;;;11.50;3.08;;;;;;;15.68;100.00;100552.31;6152750;23;20013;-68
2023/09/20 06:10:31;;;;;;;11.23;3.17;;;;;;;15.68;100.00;100539.66;6151728;23;20006;-69
2023/09/20 06:12:56;;;;;;;8.82;3.63;;;;;;;15.72;100.00;100537.47;6152084;23;20032;-69
2023/09/20 06:15:21;;;;;;;11.90;3.35;;;;;;;15.73;100.00;100540.03;6152111;23;20064;-69
2023/09/20 06:17:47;;;;;;;14.63;3.33;;;;;;;15.74;100.00;100538.19;6152163;23;20006;-68
2023/09/20 06:20:19;;;;;;;13.60;3.60;;;;;;;15.75;100.00;100531.75;6152748;23;20070;-69
2023/09/20 06:22:46;;;;;;;11.15;3.72;;;;;;;15.77;100.00;100539.72;6151774;23;20017;-68
2023/09/20 06:25:12;;;;;;;15.35;3.45;;;;;;;15.76;100.00;100538.88;6150473;23;20009;-69
2023/09/20 06:27:37;;;;;;;11.80;3.35;;;;;;;15.78;100.00;100539.59;6151491;23;20339;-69
2023/09/20 06:30:06;;;;;;;11.30;3.17;;;;;;;15.82;100.00;100538.28;6149536;23;20351;-68
2023/09/20 06:32:33;;;;;;;10.07;3.65;;;;;;;15.84;100.00;100533.56;6150523;23;20009;-69
2023/09/20 06:35:02;;;;;;;13.82;3.67;;;;;;;15.88;100.00;100542.22;6152439;23;20005;-69
2023/09/20 06:37:27;;;;;;;15.25;4.07;;;;;;;15.91;100.00;100552.75;6152840;23;20072;-68
2023/09/20 06:39:55;;;;;;;12.75;3.50;;;;;;;15.93;100.00;100545.34;6152075;23;20427;-68
2023/09/20 06:42:20;;;;;;;15.75;3.60;;;;;;;15.96;100.00;100541.44;6152570;23;20103;-69
2023/09/20 06:44:45;;;;;;;14.00;3.33;;;;;;;16.00;100.00;100537.44;6151775;23;20002;-68
2023/09/20 06:47:11;;;;;;;15.35;4.07;;;;;;;16.03;100.00;100540.69;6151754;23;20084;-68
2023/09/20 06:49:38;;;;;;;11.02;3.60;;;;;;;16.08;100.00;100540.22;6152101;23;20017;-69
2023/09/20 06:52:08;;;;;;;12.25;3.38;;;;;;;16.12;100.00;100541.63;6152070;23;20005;-69
2023/09/20 06:54:36;;;;;;;7.20;2.85;;;;;;;16.18;100.00;100546.41;6152065;23;20251;-68
2023/09/20 06:57:04;;;;;;;12.80;3.55;;;;;;;16.21;100.00;100546.09;6151708;23;20109;-68
2023/09/20 06:59:31;;;;;;;15.98;3.65;;;;;;;16.28;100.00;100540.88;6151894;23;20061;-67
2023/09/20 07:01:58;;;;;;;10.27;3.47;;;;;;;16.31;100.00;100540.59;6151878;23;20435;-68
2023/09/20 07:04:25;;;;;;;15.27;4.18;;;;;;;16.37;100.00;100545.38;6149972;23;20064;-68
2023/09/20 07:06:52;;;;;;;8.40;3.22;;;;;;;16.42;100.00;100544.91;6151606;23;20148;-68
2023/09/20 07:09:17;;;;;;;9.43;3.15;;;;;;;16.45;100.00;100549.16;6150792;23;20069;-68
2023/09/20 07:11:42;;;;;;;12.93;3.53;;;;;;;16.50;100.00;100536.81;6151463;23;20029;-75
2023/09/20 07:14:08;;;;;;;12.02;3.20;;;;;;;16.55;100.00;100539.06;6151061;23;20388;-75
2023/09/20 07:16:36;;;;;;;15.15;3.47;;;;;;;16.57;100.00;100537.03;6151652;23;20017;-74
2023/09/20 07:19:05;;;;;;;13.55;4.13;;;;;;;16.58;100.00;100528.72;6151774;23;20144;-75
2023/09/20 07:21:31;;;;;;;9.77;3.28;;;;;;;16.62;100.00;100531.97;6151504;23;20041;-74
2023/09/20 07:23:59;;;;;;;13.73;3.63;;;;;;;16.66;100.00;100530.66;6150610;23;20067;-76
2023/09/20 07:26:25;;;;;;;11.13;3.40;;;;;;;16.70;100.00;100537.44;6151105;23;20084;-74
2023/09/20 07:28:54;;;;;;;8.10;3.13;;;;;;;16.74;100.00;100538.84;6149037;23;20021;-75
2023/09/20 07:31:21;;;;;;;11.73;3.58;;;;;;;16.76;100.00;100530.53;6150849;23;20002;-74
2023/09/20 07:33:47;;;;;;;12.82;3.50;;;;;;;16.78;100.00;100533.94;6151321;23;20424;-75
2023/09/20 07:36:13;;;;;;;13.73;3.67;;;;;;;16.82;100.00;100539.91;6150950;23;20001;-75
2023/09/20 07:38:38;;;;;;;11.77;3.47;;;;;;;16.84;100.00;100527.88;6150937;23;20008;-75
2023/09/20 07:41:13;;;;;;;9.40;2.97;;;;;;;16.86;100.00;100535.84;6149238;23;20020;-74
2023/09/20 07:43:42;;;;;;;11.88;3.47;;;;;;;16.87;100.00;100534.84;6149758;23;20335;-69
2023/09/20 07:46:07;;;;;;;9.88;3.22;;;;;;;16.90;100.00;100542.69;6151625;23;20011;-68
2023/09/20 07:48:34;;;;;;;11.30;3.13;;;;;;;16.92;100.00;100540.66;6151698;23;20009;-68
2023/09/20 07:51:01;;;;;;;14.13;3.70;;;;;;;16.93;100.00;100542.38;6149621;23;20016;-67
2023/09/20 07:53:26;;;;;;;17.50;3.88;;;;;;;16.96;100.00;100552.91;6151277;23;20085;-66
2023/09/20 07:56:11;;;;;;;13.50;3.75;;;;;;;16.99;100.00;100535.44;6150774;23;20036;-68
2023/09/20 07:58:36;;;;;;;10.88;3.63;;;;;;;16.98;100.00;100534.56;6150295;23;20013;-68
2023/09/20 08:01:16;;;;;;;14.30;3.65;;;;;;;17.01;100.00;100530.69;6150793;23;20008;-68
2023/09/20 08:03:50;;;;;;;14.90;3.53;;;;;;;17.03;100.00;100524.09;6150949;23;20092;-67
2023/09/20 08:06:35;;;;;;;13.30;3.58;;;;;;;17.04;100.00;100528.53;6149234;23;20002;-68
2023/09/20 08:09:04;;;;;;;11.93;3.60;;;;;;;17.08;100.00;100531.75;6148702;23;20495;-68
2023/09/20 08:11:31;;;;;;;18.17;4.00;;;;;;;17.09;100.00;100539.72;6150324;23;20016;-68
2023/09/20 08:13:59;;;;;;;16.80;4.03;;;;;;;17.12;100.00;100524.97;6148602;23;20053;-68
2023/09/20 08:16:27;;;;;;;15.43;3.83;;;;;;;17.15;100.00;100534.69;6150363;23;20006;-69
2023/09/20 08:21:38;;;;;;;16.30;4.97;;;;;;;17.21;100.00;100539.44;6151631;23;20047;-69
2023/09/20 09:00:21;;;;;;;14.23;3.65;;;;;;;17.82;100.00;100551.84;6212637;23;20062;-76
2023/09/20 09:02:57;;;;;;;15.30;4.13;;;;;;;17.88;100.00;100558.47;6186015;23;20000;-77
2023/09/20 09:05:27;;;;;;;12.55;4.13;;;;;;;17.91;100.00;100552.75;6212618;23;20066;-76
2023/09/20 09:07:53;;;;;;;11.98;3.67;;;;;;;17.94;100.00;100540.69;6212383;23;20012;-74
2023/09/20 09:10:18;;;;;;;15.23;4.43;;;;;;;17.96;100.00;100541.34;6212306;23;20045;-74
2023/09/20 09:12:44;;;;;;;12.27;4.35;;;;;;;17.97;100.00;100543.06;6212675;23;20039;-62
2023/09/20 09:15:11;;;;;;;11.70;3.30;;;;;;;17.99;100.00;100549.16;6213689;23;20004;-61
2023/09/20 09:17:40;;;;;;;9.85;3.53;;;;;;;18.03;100.00;100549.69;6212059;23;20151;-62
2023/09/20 09:20:11;;;;;;;13.30;4.07;;;;;;;18.03;100.00;100545.09;6212779;23;20000;-62
2023/09/20 09:22:38;;;;;;;16.08;3.72;;;;;;;18.05;100.00;100545.78;6212732;23;20008;-62
2023/09/20 09:25:09;;;;;;;17.08;3.53;;;;;;;18.06;100.00;100536.59;6212330;23;20432;-62
2023/09/20 09:27:36;;;;;;;11.50;3.78;;;;;;;18.08;100.00;100545.47;6212036;23;20008;-62
2023/09/20 09:30:01;;;;;;;11.77;3.30;;;;;;;18.11;100.00;100547.84;6212068;23;20383;-62
2023/09/20 09:32:35;;;;;;;11.43;3.03;;;;;;;18.16;100.00;100542.72;6210091;23;20009;-63
2023/09/20 09:35:05;;;;;;;9.20;3.15;;;;;;;18.22;100.00;100534.91;6211032;23;20028;-64
2023/09/20 09:37:35;;;;;;;8.82;3.40;;;;;;;18.26;100.00;100538.97;6182931;23;20048;-62
2023/09/20 09:40:03;;;;;;;18.25;3.92;;;;;;;18.29;100.00;100539.50;6210541;23;20031;-62
2023/09/20 09:42:28;;;;;;;12.07;3.70;;;;;;;18.34;100.00;100537.09;6211740;23;20008;-61
2023/09/20 09:44:58;;;;;;;15.05;4.25;;;;;;;18.40;100.00;100534.72;6211453;23;20031;-62
2023/09/20 09:47:24;;;;;;;10.68;3.38;;;;;;;18.44;100.00;100536.94;6184270;23;20005;-63
2023/09/20 09:49:52;;;;;;;11.88;3.65;;;;;;;18.47;100.00;100531.13;6211488;23;20005;-63
2023/09/20 09:52:26;;;;;;;12.57;3.37;;;;;;;18.51;100.00;100535.22;6209988;23;20365;-62
2023/09/20 09:54:54;;;;;;;15.32;4.07;;;;;;;18.54;100.00;100520.44;6211636;23;20039;-62
2023/09/20 09:57:21;;;;;;;11.00;3.03;;;;;;;18.58;100.00;100513.63;6210868;23;20161;-62
2023/09/20 09:59:47;;;;;;;10.20;2.75;;;;;;;18.64;100.00;100507.47;6211478;23;20236;-62
2023/09/20 10:02:18;;;;;;;10.95;3.03;;;;;;;18.68;99.80;100506.13;6211281;23;20403;-62
2023/09/20 10:04:54;;;;;;;11.82;2.90;;;;;;;18.74;99.41;100506.41;6211100;23;20600;-62
2023/09/20 10:07:22;;;;;;;8.20;3.03;;;;;;;18.78;99.62;100511.34;6211539;23;20109;-62
2023/09/20 10:09:55;;;;;;;10.43;2.92;;;;;;;18.82;100.00;100509.97;6210992;23;20032;-62
2023/09/20 10:12:22;;;;;;;10.30;2.95;;;;;;;18.84;99.02;100507.94;6211549;23;20012;-63
2023/09/20 10:14:48;;;;;;;13.05;3.70;;;;;;;18.88;98.43;100502.16;6210639;23;20004;-62
2023/09/20 10:17:20;;;;;;;12.98;3.17;;;;;;;18.92;100.00;100503.50;6210950;23;20576;-62
2023/09/20 10:19:47;;;;;;;12.60;3.20;;;;;;;18.99;100.00;100502.63;6209796;23;20063;-62
2023/09/20 10:22:13;;;;;;;14.55;2.80;;;;;;;19.04;96.57;100500.22;6209340;23;20458;-62
2023/09/20 10:25:00;;;;;;;10.43;2.88;;;;;;;19.11;97.73;100503.09;6209452;23;20001;-62
2023/09/20 10:27:31;;;;;;;8.35;2.63;;;;;;;19.18;95.55;100497.78;6209555;23;20031;-61
2023/09/20 10:30:10;;;;;;;11.63;3.10;;;;;;;19.26;95.60;100505.91;6209419;23;20074;-62
2023/09/20 10:32:47;;;;;;;;;;;;;;;19.30;96.53;100503.69;6210065;23;20414;-62
2023/09/20 10:35:33;;;;;;;10.38;3.22;;;;;;;19.31;93.66;100487.16;6210848;23;19927;-63
2023/09/20 10:38:04;;;;;;;11.02;3.08;;;;;;;19.36;94.24;100495.63;6210917;23;20087;-62
2023/09/20 10:40:55;;;;;;;12.90;2.92;;;;;;;19.38;96.40;100488.13;6211176;23;20011;-63
2023/09/20 10:43:46;;;;;;;10.77;2.95;;;;;;;19.39;96.06;100476.22;6210350;23;20382;-68
2023/09/20 10:46:14;;;;;;;11.10;2.72;;;;;;;19.38;92.35;100476.38;6199329;23;20087;-68
2023/09/20 10:48:43;;;;;;;7.90;2.55;;;;;;;19.38;92.88;100474.50;6209293;23;20005;-68
2023/09/20 10:51:09;;;;;;;5.57;2.42;;;;;;;19.40;91.43;100479.81;6208860;23;20005;-73
2023/09/20 10:53:44;;;;;;;9.50;2.83;;;;;;;19.43;92.84;100471.25;6209973;23;20008;-74
2023/09/20 10:56:30;;;;;;;12.55;2.85;;;;;;;19.44;91.48;100472.09;6210859;23;20080;-74
2023/09/20 10:58:57;;;;;;;7.15;2.25;;;;;;;19.48;92.68;100477.00;6192171;23;20453;-74
2023/09/20 11:01:22;;;;;;;6.63;2.38;;;;;;;19.51;93.57;100470.34;6208561;23;20005;-68
2023/09/20 11:03:47;;;;;;;14.63;3.15;;;;;;;19.53;92.12;100465.56;6210274;23;20091;-68
2023/09/20 11:06:12;;;;;;;9.60;3.05;;;;;;;19.54;91.86;100468.09;6210817;23;20054;-69
2023/09/20 11:08:38;;;;;;;13.48;3.17;;;;;;;19.58;91.96;100462.28;6211321;23;20004;-67
2023/09/20 11:11:07;;;;;;;8.73;2.47;;;;;;;19.62;90.75;100463.63;6211142;23;20008;-67
2023/09/20 11:13:32;;;;;;;11.45;3.00;;;;;;;19.62;90.02;100459.03;6211088;23;20399;-68
2023/09/20 11:16:02;;;;;;;12.00;2.83;;;;;;;19.64;89.99;100467.88;6209299;23;20058;-68
2023/09/20 11:18:28;;;;;;;10.95;3.05;;;;;;;19.65;91.19;100471.44;6210171;23;20005;-68
2023/09/20 11:20:53;;;;;;;11.68;2.38;;;;;;;19.69;90.58;100461.88;6182973;23;20565;-68
2023/09/20 11:23:18;;;;;;;7.40;2.20;;;;;;;19.72;89.74;100453.31;6209386;23;20001;-67
2023/09/20 11:25:44;;;;;;;8.45;2.75;;;;;;;19.72;89.57;100465.09;6209196;23;20009;-69
2023/09/20 11:28:10;;;;;;;8.77;2.53;;;;;;;19.77;88.49;100467.28;6183386;23;19996;-68
2023/09/20 11:30:36;;;;;;;5.60;2.47;;;;;;;19.76;87.34;100465.56;6210297;23;20311;-68
2023/09/20 11:33:01;;;;;;;9.77;2.63;;;;;;;19.73;86.57;100455.88;6209998;23;20079;-68
2023/09/20 11:35:34;;;;;;;9.30;3.08;;;;;;;19.72;88.39;100456.91;6183429;23;20020;-68
2023/09/20 11:38:03;;;;;;;10.38;2.70;;;;;;;19.69;87.58;100468.19;6210120;23;20011;-69
2023/09/20 11:40:35;;;;;;;;;;;;;;;19.72;90.42;100473.28;6210877;23;20005;-66
2023/09/20 11:43:03;;;;;;;13.68;2.95;;;;;;;19.67;87.84;100466.66;6183934;23;20003;-68
2023/09/20 11:45:28;;;;;;;10.75;2.40;;;;;;;19.64;87.20;100470.59;6182680;23;20030;-68
2023/09/20 11:47:54;;;;;;;13.18;3.22;;;;;;;19.62;89.05;100459.03;6209854;23;20015;-68
2023/09/20 11:50:27;;;;;;;7.72;2.60;;;;;;;19.65;88.75;100463.25;6209133;23;20027;-68
2023/09/20 11:52:53;;;;;;;11.20;3.08;;;;;;;19.65;87.44;100466.84;6210729;23;20449;-68
2023/09/20 11:55:20;;;;;;;9.50;2.55;;;;;;;19.65;87.69;100469.56;6210946;23;20135;-69